Podhale (bahama Islands) — C6TX9 — position and weather

sailwx.info

Track history (hours):
 
Tides and Currents Weather Stations Pressure Air Temp Water Temp Dewpoint Dewpoint Depression Visibility Wind Speed Wind Dir Waves Ship Positions

Podhale (bahama Islands)

Last reported at 2017-Nov-28 15:01 UTC. Time now 2017-Dec-14 15:22 UTC.
Position N 38°11' W 009°56'.
Warning: this ship's position is 16 days out of date.

Length 190 m; beam 24 m.

Type: Cargo ship. MMSI: 311831000.

Date/timePositionNaut miles runAvg speedWind from/ knotsBaromVisibWave heightAir tempDewpointWater temp
2017-Nov-28 15:01N 38°11' W 009°56'611.9
2017-Nov-28 14:30N 38°17' W 009°58'611.9
2017-Nov-28 14:00N 38°22' W 009°60'611.8
2017-Nov-28 13:30N 38°28' W 010°02'611.7
2017-Nov-28 13:00N 38°34' W 010°03'611.6
2017-Nov-28 12:30N 38°39' W 010°05'611.7
2017-Nov-28 12:01N 38°45' W 010°06'611.8
2017-Nov-28 11:30N 38°51' W 010°06'611.9
2017-Nov-28 11:00N 38°57' W 010°06'612.2
2017-Nov-28 10:31N 39°03' W 010°06'612.1
2017-Nov-28 10:01N 39°09' W 010°06'611.4
2017-Nov-28 09:31N 39°15' W 010°07'611.2
2017-Nov-28 09:00N 39°20' W 010°07'  
2017-Nov-25 20:13N 49°48' W 003°26'311.0
2017-Nov-25 19:56N 49°50' W 003°22'511.4
2017-Nov-25 19:28N 49°53' W 003°15'911.8
2017-Nov-25 18:41N 49°57' W 003°02'212.3
2017-Nov-25 18:30N 49°58' W 002°59'612.3
2017-Nov-25 18:00N 50°00' W 002°50'612.5
2017-Nov-25 17:30N 50°02' W 002°41'2112.3
2017-Nov-25 15:47N 50°08' W 002°09'311.5
2017-Nov-25 15:29N 50°09' W 002°04'511.2
2017-Nov-25 15:00N 50°10' W 001°56'510.9
2017-Nov-25 14:30N 50°12' W 001°48'510.5
2017-Nov-25 14:01N 50°13' W 001°40'510.1
2017-Nov-25 13:30N 50°14' W 001°32'5 9.7
2017-Nov-25 13:01N 50°16' W 001°25'5 9.4
2017-Nov-25 12:31N 50°17' W 001°18'34 9.7
2017-Nov-25 09:00N 50°27' W 000°27'611.7
2017-Nov-25 08:30N 50°28' W 000°18'612.1
2017-Nov-25 08:00N 50°30' W 000°09'612.3
2017-Nov-25 07:31N 50°32' E 000°00'612.5
2017-Nov-25 07:00N 50°33' E 000°10'612.6
2017-Nov-25 06:31N 50°35' E 000°19'612.6
2017-Nov-25 06:01N 50°37' E 000°29'612.4
2017-Nov-25 05:31N 50°40' E 000°37'612.3
2017-Nov-25 05:01N 50°44' E 000°45'612.0
2017-Nov-25 04:30N 50°47' E 000°53'611.6
2017-Nov-25 04:01N 50°50' E 001°00'611.2
2017-Nov-25 03:30N 50°54' E 001°07'510.9
2017-Nov-25 03:00N 50°57' E 001°14'510.7
2017-Nov-25 02:31N 51°01' E 001°20'611.4
2017-Nov-25 02:00N 51°05' E 001°27'612.4
2017-Nov-25 01:31N 51°09' E 001°35'612.8
2017-Nov-25 01:01N 51°13' E 001°43'713.6
2017-Nov-25 00:30N 51°18' E 001°49'713.9
2017-Nov-25 00:00N 51°25' E 001°53'713.8
2017-Nov-24 23:30N 51°30' E 002°00'713.7
2017-Nov-24 23:00N 51°35' E 002°08'713.6
2017-Nov-24 22:31N 51°40' E 002°15'25210.4
2017-Nov-23 22:16N 55°21' E 005°38'2 5.8
2017-Nov-23 21:55N 55°23' E 005°40'  
Track history (hours):
 
Tides and Currents Weather Stations Pressure Air Temp Water Temp Dewpoint Dewpoint Depression Visibility Wind Speed Wind Dir Waves Ship Positions

Podhale (bahama Islands)

Last reported at 2017-Nov-28 15:01 UTC. Time now 2017-Dec-14 15:22 UTC.
Position N 38°11' W 009°56'.
Warning: this ship's position is 16 days out of date.

Length 190 m; beam 24 m.

Type: Cargo ship. MMSI: 311831000.

Date/timePositionNaut miles runAvg speedWind from/ knotsBaromVisibWave heightAir tempDewpointWater temp
2017-Nov-28 15:01N 38°11' W 009°56'611.9
2017-Nov-28 14:30N 38°17' W 009°58'611.9
2017-Nov-28 14:00N 38°22' W 009°60'611.8
2017-Nov-28 13:30N 38°28' W 010°02'611.7
2017-Nov-28 13:00N 38°34' W 010°03'611.6
2017-Nov-28 12:30N 38°39' W 010°05'611.7
2017-Nov-28 12:01N 38°45' W 010°06'611.8
2017-Nov-28 11:30N 38°51' W 010°06'611.9
2017-Nov-28 11:00N 38°57' W 010°06'612.2
2017-Nov-28 10:31N 39°03' W 010°06'612.1
2017-Nov-28 10:01N 39°09' W 010°06'611.4
2017-Nov-28 09:31N 39°15' W 010°07'611.2
2017-Nov-28 09:00N 39°20' W 010°07'  
2017-Nov-25 20:13N 49°48' W 003°26'311.0
2017-Nov-25 19:56N 49°50' W 003°22'511.4
2017-Nov-25 19:28N 49°53' W 003°15'911.8
2017-Nov-25 18:41N 49°57' W 003°02'212.3
2017-Nov-25 18:30N 49°58' W 002°59'612.3
2017-Nov-25 18:00N 50°00' W 002°50'612.5
2017-Nov-25 17:30N 50°02' W 002°41'2112.3
2017-Nov-25 15:47N 50°08' W 002°09'311.5
2017-Nov-25 15:29N 50°09' W 002°04'511.2
2017-Nov-25 15:00N 50°10' W 001°56'510.9
2017-Nov-25 14:30N 50°12' W 001°48'510.5
2017-Nov-25 14:01N 50°13' W 001°40'510.1
2017-Nov-25 13:30N 50°14' W 001°32'5 9.7
2017-Nov-25 13:01N 50°16' W 001°25'5 9.4
2017-Nov-25 12:31N 50°17' W 001°18'34 9.7
2017-Nov-25 09:00N 50°27' W 000°27'611.7
2017-Nov-25 08:30N 50°28' W 000°18'612.1
2017-Nov-25 08:00N 50°30' W 000°09'612.3
2017-Nov-25 07:31N 50°32' E 000°00'612.5
2017-Nov-25 07:00N 50°33' E 000°10'612.6
2017-Nov-25 06:31N 50°35' E 000°19'612.6
2017-Nov-25 06:01N 50°37' E 000°29'612.4
2017-Nov-25 05:31N 50°40' E 000°37'612.3
2017-Nov-25 05:01N 50°44' E 000°45'612.0
2017-Nov-25 04:30N 50°47' E 000°53'611.6
2017-Nov-25 04:01N 50°50' E 001°00'611.2
2017-Nov-25 03:30N 50°54' E 001°07'510.9
2017-Nov-25 03:00N 50°57' E 001°14'510.7
2017-Nov-25 02:31N 51°01' E 001°20'611.4
2017-Nov-25 02:00N 51°05' E 001°27'612.4
2017-Nov-25 01:31N 51°09' E 001°35'612.8
2017-Nov-25 01:01N 51°13' E 001°43'713.6
2017-Nov-25 00:30N 51°18' E 001°49'713.9
2017-Nov-25 00:00N 51°25' E 001°53'713.8
2017-Nov-24 23:30N 51°30' E 002°00'713.7
2017-Nov-24 23:00N 51°35' E 002°08'713.6
2017-Nov-24 22:31N 51°40' E 002°15'25210.4
2017-Nov-23 22:16N 55°21' E 005°38'2 5.8
2017-Nov-23 21:55N 55°23' E 005°40'  

Dump ship's entire track history